Time;durP1;ratioP1;P1;durP2;ratioP2;P2;SDS_P1;SDS_P2;PMS_P1;PMS_P2;Temp;Humidity;BMP_temperature;BMP_pressure;BME280_temperature;BME280_humidity;BME280_pressure;Samples;Min_cycle;Max_cycle;Signal;HPM_P1;HPM_P2
2021/04/19 00:01:32;;;;;;;13.23;7.60;;;8.20;94.30;;;;;;5081107;28;20067;-86
2021/04/19 00:03:59;;;;;;;12.30;7.53;;;8.20;94.20;;;;;;5077480;28;20044;-81
2021/04/19 00:06:25;;;;;;;11.40;6.90;;;8.20;93.90;;;;;;5087784;28;20083;-81
2021/04/19 00:08:53;;;;;;;11.98;7.38;;;8.10;94.20;;;;;;5087226;28;20072;-81
2021/04/19 00:11:20;;;;;;;11.57;6.80;;;7.90;94.40;;;;;;5089258;28;20040;-80
2021/04/19 00:13:47;;;;;;;10.40;6.75;;;7.90;94.70;;;;;;5092277;28;20044;-83
2021/04/19 00:16:14;;;;;;;11.50;6.82;;;7.80;94.90;;;;;;5086036;28;20517;-81
2021/04/19 00:18:41;;;;;;;10.43;7.07;;;7.80;95.10;;;;;;5058617;28;20131;-80
2021/04/19 00:21:08;;;;;;;14.63;7.55;;;7.90;95.10;;;;;;5077543;28;20101;-80
2021/04/19 00:23:34;;;;;;;11.00;7.18;;;7.90;95.10;;;;;;5096511;28;20083;-82
2021/04/19 00:26:02;;;;;;;11.52;6.78;;;8.00;95.00;;;;;;5083962;28;20083;-81
2021/04/19 00:28:29;;;;;;;11.65;7.47;;;8.00;95.00;;;;;;5092400;28;20048;-81
2021/04/19 00:30:56;;;;;;;10.70;6.85;;;8.10;95.20;;;;;;5077221;28;20163;-83
2021/04/19 00:33:23;;;;;;;10.07;6.65;;;8.00;95.20;;;;;;5086543;28;20480;-84
2021/04/19 00:35:49;;;;;;;11.88;7.00;;;8.10;95.10;;;;;;5082950;28;20131;-83
2021/04/19 00:38:16;;;;;;;13.40;7.55;;;8.10;94.90;;;;;;5093171;28;20075;-82
2021/04/19 00:40:44;;;;;;;11.70;7.13;;;8.20;94.80;;;;;;5093169;28;20115;-84
2021/04/19 00:43:12;;;;;;;10.90;6.78;;;8.20;94.70;;;;;;5085312;28;20064;-84
2021/04/19 00:45:39;;;;;;;10.52;6.95;;;8.20;94.40;;;;;;5095408;28;20091;-83
2021/04/19 00:48:08;;;;;;;11.70;7.88;;;8.10;94.30;;;;;;5070333;28;20044;-83
2021/04/19 00:50:35;;;;;;;11.93;7.75;;;7.90;94.70;;;;;;5077299;28;20087;-83
2021/04/19 00:53:04;;;;;;;12.85;8.82;;;7.90;94.80;;;;;;5091807;28;20127;-83
2021/04/19 00:55:31;;;;;;;12.50;8.38;;;7.90;94.70;;;;;;5079928;28;20072;-83
2021/04/19 00:57:58;;;;;;;13.38;8.27;;;7.90;94.80;;;;;;5085781;28;20147;-83
2021/04/19 01:00:30;;;;;;;15.93;10.00;;;7.90;94.60;;;;;;5075204;28;20083;-81
2021/04/19 01:02:57;;;;;;;13.25;8.70;;;7.90;94.40;;;;;;5090055;28;20182;-82
2021/04/19 01:05:29;;;;;;;12.15;8.35;;;7.90;94.70;;;;;;5085811;28;20047;-81
2021/04/19 01:07:56;;;;;;;12.80;7.82;;;7.90;94.80;;;;;;5081097;28;20127;-81
2021/04/19 01:10:23;;;;;;;13.75;8.60;;;7.90;94.90;;;;;;5093363;28;20090;-82
2021/04/19 01:12:50;;;;;;;14.68;8.43;;;7.90;95.20;;;;;;5094447;28;20497;-83
2021/04/19 01:15:19;;;;;;;13.35;8.70;;;7.90;94.90;;;;;;5068277;28;20054;-83
2021/04/19 01:17:47;;;;;;;14.48;8.63;;;7.90;94.70;;;;;;5088771;28;20135;-82
2021/04/19 01:20:20;;;;;;;14.68;8.10;;;7.90;94.60;;;;;;5060990;28;20086;-82
2021/04/19 01:22:48;;;;;;;13.68;7.85;;;7.90;94.60;;;;;;5090838;28;20083;-82
2021/04/19 01:25:18;;;;;;;13.20;8.70;;;7.90;94.60;;;;;;5084858;28;20052;-82
2021/04/19 01:27:45;;;;;;;12.15;8.48;;;7.90;94.50;;;;;;5082694;28;20543;-82
2021/04/19 01:30:15;;;;;;;13.65;8.38;;;7.90;94.40;;;;;;5091609;28;20560;-82
2021/04/19 01:32:42;;;;;;;13.18;8.25;;;7.80;94.30;;;;;;5102097;28;20047;-82
2021/04/19 01:35:11;;;;;;;13.10;8.55;;;7.80;94.10;;;;;;5082192;28;20076;-83
2021/04/19 01:37:39;;;;;;;14.20;8.88;;;7.70;94.30;;;;;;5057765;28;20135;-82
2021/04/19 01:40:12;;;;;;;12.15;8.00;;;7.60;94.40;;;;;;5076778;28;20087;-82
2021/04/19 01:42:39;;;;;;;14.18;8.45;;;7.60;94.70;;;;;;5075885;28;20045;-83
2021/04/19 01:45:08;;;;;;;13.27;8.00;;;7.60;94.80;;;;;;5076265;28;20075;-85
2021/04/19 01:47:35;;;;;;;13.35;8.40;;;7.50;94.90;;;;;;5080052;28;20040;-84
2021/04/19 01:50:09;;;;;;;12.73;8.60;;;7.50;94.90;;;;;;5101413;28;20052;-85
2021/04/19 01:52:35;;;;;;;14.15;9.07;;;7.50;94.90;;;;;;5094655;28;20059;-84
2021/04/19 01:55:04;;;;;;;14.98;9.13;;;7.50;94.80;;;;;;5096626;28;20062;-85
2021/04/19 01:57:32;;;;;;;14.93;9.32;;;7.50;94.80;;;;;;5083634;28;20189;-83
2021/04/19 02:00:00;;;;;;;14.85;8.70;;;7.50;94.80;;;;;;5056851;28;20462;-83
2021/04/19 02:02:45;;;;;;;13.65;8.60;;;7.50;94.80;;;;;;5075818;28;20044;-82
2021/04/19 02:05:24;;;;;;;13.90;8.50;;;7.40;94.90;;;;;;5075482;28;20471;-82
2021/04/19 02:07:59;;;;;;;13.90;8.65;;;7.40;95.00;;;;;;5074909;28;20551;-82
2021/04/19 02:10:29;;;;;;;;;;;7.20;95.00;;;;;;5075865;28;20075;-84
2021/04/19 02:13:04;;;;;;;13.73;8.75;;;7.40;94.90;;;;;;5075145;28;20003;-84
2021/04/19 02:15:38;;;;;;;14.20;9.15;;;7.40;94.90;;;;;;5074576;28;20076;-83
2021/04/19 02:18:12;;;;;;;14.60;8.95;;;7.40;95.20;;;;;;5074513;28;20139;-83
2021/04/19 02:20:46;;;;;;;13.77;8.50;;;7.40;94.80;;;;;;5075318;28;20056;-83
2021/04/19 02:23:27;;;;;;;14.48;8.45;;;7.40;94.80;;;;;;5075406;28;20494;-83
2021/04/19 02:25:59;;;;;;;15.82;9.00;;;7.40;94.80;;;;;;5075395;28;20127;-84
2021/04/19 02:28:32;;;;;;;13.07;9.00;;;7.40;94.70;;;;;;5074828;28;20049;-84
2021/04/19 02:31:04;;;;;;;14.10;8.90;;;7.30;94.80;;;;;;5040321;28;20048;-83
2021/04/19 02:33:36;;;;;;;13.57;8.85;;;7.30;94.80;;;;;;5074735;28;20121;-84
2021/04/19 02:36:05;;;;;;;12.75;8.05;;;7.30;94.70;;;;;;5074261;28;20097;-83
2021/04/19 02:38:33;;;;;;;13.43;8.50;;;7.20;94.80;;;;;;5056527;28;20148;-82
2021/04/19 02:41:02;;;;;;;12.55;8.50;;;7.20;94.80;;;;;;5073518;28;20136;-83
2021/04/19 02:43:34;;;;;;;13.05;8.38;;;7.20;94.80;;;;;;5074419;28;20079;-85
2021/04/19 02:46:01;;;;;;;13.40;8.43;;;7.10;95.10;;;;;;5074909;28;20080;-85
2021/04/19 02:48:28;;;;;;;14.38;8.68;;;7.00;95.20;;;;;;5074639;28;20487;-84
2021/04/19 02:50:57;;;;;;;14.40;8.20;;;7.10;95.10;;;;;;5074339;28;20076;-84
2021/04/19 02:53:25;;;;;;;13.07;8.55;;;7.00;95.10;;;;;;5074863;28;20487;-81
2021/04/19 02:55:52;;;;;;;16.25;9.30;;;7.00;95.30;;;;;;5074383;28;20056;-83
2021/04/19 02:58:31;;;;;;;15.15;9.13;;;6.90;95.30;;;;;;5073741;28;20147;-82
2021/04/19 03:01:00;;;;;;;15.20;9.15;;;6.90;95.40;;;;;;5073715;28;20112;-82
2021/04/19 03:03:30;;;;;;;17.02;9.65;;;6.90;95.50;;;;;;5054216;28;20557;-82
2021/04/19 03:05:59;;;;;;;15.90;9.15;;;6.90;95.50;;;;;;5071196;28;20140;-82
2021/04/19 03:08:31;;;;;;;14.23;8.85;;;6.80;95.60;;;;;;5053817;28;20139;-83
2021/04/19 03:11:05;;;;;;;14.30;8.80;;;6.80;95.70;;;;;;5053628;28;20167;-82
2021/04/19 03:13:35;;;;;;;15.88;9.40;;;6.80;95.80;;;;;;5054376;28;20076;-83
2021/04/19 03:16:06;;;;;;;14.77;9.93;;;6.80;95.70;;;;;;5072171;28;20129;-83
2021/04/19 03:18:36;;;;;;;16.15;9.23;;;6.80;95.70;;;;;;5054341;28;20140;-84
2021/04/19 03:21:09;;;;;;;16.35;9.55;;;6.80;95.60;;;;;;5056803;28;20109;-82
2021/04/19 03:23:40;;;;;;;15.13;9.23;;;6.90;95.70;;;;;;5080107;28;20052;-81
2021/04/19 03:26:07;;;;;;;14.27;8.50;;;6.80;95.70;;;;;;5071911;28;20048;-83
2021/04/19 03:28:36;;;;;;;15.48;9.57;;;6.80;95.70;;;;;;5071595;28;20139;-83
2021/04/19 03:31:07;;;;;;;15.50;9.25;;;6.90;95.70;;;;;;5055074;28;20502;-85
2021/04/19 03:33:37;;;;;;;14.32;8.77;;;6.90;95.70;;;;;;5083233;28;20052;-83
2021/04/19 03:36:06;;;;;;;18.10;9.40;;;6.90;95.70;;;;;;5080979;28;20068;-83
2021/04/19 03:38:33;;;;;;;14.07;8.52;;;6.90;95.30;;;;;;5071567;28;20131;-80
2021/04/19 03:41:03;;;;;;;14.93;9.30;;;6.90;95.00;;;;;;5071190;28;20052;-79
2021/04/19 03:43:31;;;;;;;15.63;9.90;;;6.80;95.00;;;;;;5071321;28;20127;-81
2021/04/19 03:46:04;;;;;;;15.32;9.23;;;6.70;95.30;;;;;;5071136;28;20095;-81
2021/04/19 03:48:35;;;;;;;16.10;9.30;;;6.60;95.90;;;;;;5070998;28;20124;-81
2021/04/19 03:51:06;;;;;;;15.85;9.05;;;6.60;95.90;;;;;;5070932;28;20051;-80
2021/04/19 03:53:34;;;;;;;14.05;9.00;;;6.60;95.90;;;;;;5071026;28;20235;-81
2021/04/19 03:56:03;;;;;;;15.38;9.30;;;6.70;96.00;;;;;;5071285;28;20448;-83
2021/04/19 03:58:33;;;;;;;16.58;9.45;;;6.70;95.80;;;;;;5071246;28;20045;-80
2021/04/19 04:01:05;;;;;;;16.10;9.85;;;6.70;95.80;;;;;;5070788;28;20090;-81
2021/04/19 04:03:34;;;;;;;16.38;9.98;;;6.70;95.80;;;;;;5053930;28;20087;-82
2021/04/19 04:06:02;;;;;;;18.10;10.73;;;6.70;95.70;;;;;;5071016;28;20095;-80
2021/04/19 04:08:29;;;;;;;16.85;10.10;;;6.80;95.30;;;;;;5071480;28;20139;-83
2021/04/19 04:10:56;;;;;;;17.42;9.85;;;6.70;95.30;;;;;;5071736;28;20080;-83
2021/04/19 04:13:23;;;;;;;15.63;9.27;;;6.60;95.60;;;;;;5054065;28;20140;-82
2021/04/19 04:15:56;;;;;;;17.60;9.85;;;6.50;95.80;;;;;;5071482;28;20114;-79
2021/04/19 04:18:23;;;;;;;15.38;9.73;;;6.60;96.20;;;;;;5071195;28;20036;-80
2021/04/19 04:20:51;;;;;;;15.70;8.95;;;6.70;95.90;;;;;;5070632;28;20139;-81
2021/04/19 04:23:18;;;;;;;15.95;9.20;;;6.70;95.70;;;;;;5053788;28;20056;-81
2021/04/19 04:25:46;;;;;;;15.45;9.63;;;6.70;95.50;;;;;;5075186;28;20127;-81
2021/04/19 04:28:13;;;;;;;16.30;9.52;;;6.70;95.10;;;;;;5074804;28;20118;-83
2021/04/19 04:30:42;;;;;;;15.43;9.05;;;6.70;95.00;;;;;;5058323;28;20072;-83
2021/04/19 04:33:09;;;;;;;15.45;9.32;;;6.60;94.80;;;;;;5075174;28;20068;-83
2021/04/19 04:35:38;;;;;;;16.45;8.70;;;6.50;95.10;;;;;;5056816;28;20048;-82
2021/04/19 04:38:07;;;;;;;14.63;9.10;;;6.40;95.80;;;;;;5058147;28;20380;-83
2021/04/19 04:40:34;;;;;;;13.35;8.70;;;6.40;96.10;;;;;;5074130;28;20083;-83
2021/04/19 04:43:06;;;;;;;16.00;9.13;;;6.60;96.10;;;;;;5074423;28;20099;-83
2021/04/19 04:45:34;;;;;;;15.38;9.57;;;6.50;95.90;;;;;;5074334;28;20079;-82
2021/04/19 04:48:05;;;;;;;14.52;9.45;;;6.50;95.90;;;;;;5056531;28;20135;-82
2021/04/19 04:50:40;;;;;;;14.90;9.38;;;6.50;95.60;;;;;;5074217;28;20128;-83
2021/04/19 04:53:14;;;;;;;14.15;9.30;;;6.60;95.30;;;;;;5074740;28;20087;-83
2021/04/19 04:55:41;;;;;;;18.67;9.98;;;6.60;95.40;;;;;;5074925;28;20079;-82
2021/04/19 04:58:09;;;;;;;15.35;9.32;;;6.50;95.60;;;;;;5056929;28;20072;-82
2021/04/19 05:00:36;;;;;;;16.45;9.90;;;6.50;95.70;;;;;;5074531;28;20443;-83
2021/04/19 05:03:05;;;;;;;16.65;9.27;;;6.50;95.70;;;;;;5056915;28;20482;-82
2021/04/19 05:05:32;;;;;;;15.88;9.50;;;6.50;95.80;;;;;;5074137;28;20049;-82
2021/04/19 05:08:00;;;;;;;16.70;10.27;;;6.50;95.60;;;;;;5073618;28;20143;-83
2021/04/19 05:10:28;;;;;;;15.55;9.48;;;6.50;95.70;;;;;;5074101;28;20461;-83
2021/04/19 05:12:55;;;;;;;14.70;9.30;;;6.40;95.80;;;;;;5056322;28;20049;-82
2021/04/19 05:15:22;;;;;;;16.00;9.43;;;6.40;96.10;;;;;;5056158;28;20094;-84
2021/04/19 05:17:49;;;;;;;16.67;9.98;;;6.50;96.40;;;;;;5073634;28;20558;-84
2021/04/19 05:20:17;;;;;;;16.50;10.55;;;6.60;96.40;;;;;;5074151;28;20490;-83
2021/04/19 05:22:44;;;;;;;18.40;10.02;;;6.60;96.30;;;;;;5074057;28;20084;-82
2021/04/19 05:25:12;;;;;;;26.40;14.13;;;6.70;96.10;;;;;;5074648;28;20444;-83
2021/04/19 05:27:41;;;;;;;16.50;10.50;;;6.60;96.10;;;;;;5073405;28;20051;-83
2021/04/19 05:30:10;;;;;;;13.35;8.80;;;6.70;96.10;;;;;;5073331;28;20076;-83
2021/04/19 05:32:36;;;;;;;17.00;10.10;;;6.70;96.10;;;;;;5079119;28;20076;-83
2021/04/19 05:35:04;;;;;;;17.15;10.30;;;6.80;96.10;;;;;;5082555;28;20075;-83
2021/04/19 05:37:31;;;;;;;15.85;9.50;;;6.80;96.00;;;;;;5084530;28;20072;-82
2021/04/19 05:39:58;;;;;;;14.50;9.43;;;6.90;95.90;;;;;;5067595;28;20052;-83
2021/04/19 05:42:25;;;;;;;15.75;9.93;;;6.90;95.80;;;;;;5067224;28;20048;-82
2021/04/19 05:44:53;;;;;;;15.90;10.27;;;6.90;95.80;;;;;;5076357;28;20075;-79
2021/04/19 05:47:20;;;;;;;16.75;9.88;;;6.90;95.60;;;;;;5074437;28;20048;-83
2021/04/19 05:49:47;;;;;;;16.40;10.23;;;6.90;95.70;;;;;;5057899;28;20045;-82
2021/04/19 05:52:14;;;;;;;15.57;10.35;;;6.90;95.70;;;;;;5075097;28;20146;-82
2021/04/19 05:54:42;;;;;;;15.82;10.27;;;6.90;95.70;;;;;;5090528;28;20076;-82
2021/04/19 05:57:15;;;;;;;17.42;9.70;;;6.90;95.70;;;;;;5095708;28;20591;-83
2021/04/19 06:00:04;;;;;;;16.05;9.98;;;7.00;95.80;;;;;;5099006;28;20052;-82
2021/04/19 06:02:42;;;;;;;13.07;8.85;;;7.00;95.70;;;;;;5095306;28;20040;-82
2021/04/19 06:05:23;;;;;;;16.52;10.00;;;7.10;96.00;;;;;;5096011;28;20143;-83
2021/04/19 06:07:59;;;;;;;14.60;9.52;;;7.10;95.80;;;;;;5095786;28;20458;-83
2021/04/19 06:10:36;;;;;;;18.67;10.30;;;7.10;95.80;;;;;;5095582;28;20144;-83
2021/04/19 06:13:04;;;;;;;15.20;9.98;;;7.20;95.70;;;;;;5096355;28;20086;-84
2021/04/19 06:15:32;;;;;;;16.02;10.23;;;7.30;95.60;;;;;;5078525;28;20079;-84
2021/04/19 06:18:00;;;;;;;16.73;9.82;;;7.30;95.80;;;;;;5096160;28;20093;-83
2021/04/19 06:20:28;;;;;;;15.48;9.68;;;7.30;95.60;;;;;;5095792;28;20127;-83
2021/04/19 06:22:57;;;;;;;16.40;9.85;;;7.30;95.60;;;;;;5094832;28;20135;-83
2021/04/19 06:25:24;;;;;;;15.68;9.70;;;7.40;95.70;;;;;;5109519;28;20040;-83
2021/04/19 06:28:01;;;;;;;13.80;8.90;;;7.40;95.60;;;;;;5114987;28;20036;-83
2021/04/19 06:30:33;;;;;;;14.13;8.65;;;7.40;95.80;;;;;;5114420;28;20056;-82
2021/04/19 06:33:05;;;;;;;15.00;9.63;;;7.50;95.80;;;;;;5116037;28;20082;-82
2021/04/19 06:35:32;;;;;;;13.13;8.52;;;7.50;95.80;;;;;;5104912;28;20055;-85
2021/04/19 06:37:59;;;;;;;14.68;8.90;;;7.60;95.80;;;;;;5087054;28;20048;-84
2021/04/19 06:40:27;;;;;;;15.77;8.98;;;7.60;95.90;;;;;;5104515;28;20048;-82
2021/04/19 06:42:55;;;;;;;13.88;8.55;;;7.70;95.80;;;;;;5104659;28;20043;-83
2021/04/19 06:45:22;;;;;;;14.00;9.07;;;7.80;95.70;;;;;;5104441;28;20048;-86
2021/04/19 06:47:53;;;;;;;16.63;9.68;;;7.80;95.60;;;;;;5103555;28;20131;-84
2021/04/19 06:50:20;;;;;;;16.05;9.20;;;7.80;95.50;;;;;;5104106;28;20043;-84
2021/04/19 06:52:47;;;;;;;14.48;9.43;;;7.80;95.60;;;;;;5102847;28;20109;-84
2021/04/19 06:55:17;;;;;;;16.92;10.50;;;7.80;95.50;;;;;;5093798;28;20462;-84
2021/04/19 06:57:49;;;;;;;13.77;8.95;;;7.80;95.50;;;;;;5094929;28;20493;-84
2021/04/19 07:00:18;;;;;;;17.83;10.50;;;7.80;95.70;;;;;;5095486;28;20047;-85
2021/04/19 07:02:52;;;;;;;14.05;9.07;;;7.90;95.60;;;;;;5095050;28;20047;-85
2021/04/19 07:05:23;;;;;;;15.00;9.48;;;7.90;95.70;;;;;;5095019;28;20072;-83
2021/04/19 07:07:59;;;;;;;14.65;9.38;;;8.10;95.70;;;;;;5089325;28;20088;-83
2021/04/19 07:10:25;;;;;;;18.33;9.70;;;8.00;95.60;;;;;;5096640;28;20405;-82
2021/04/19 07:12:55;;;;;;;15.13;9.82;;;8.10;95.70;;;;;;5078277;28;20075;-83
2021/04/19 07:15:23;;;;;;;14.75;9.55;;;8.10;95.60;;;;;;5096356;28;20482;-84
2021/04/19 07:17:51;;;;;;;16.65;10.93;;;8.00;96.00;;;;;;5082335;28;20131;-85
2021/04/19 07:20:19;;;;;;;16.52;10.25;;;7.90;95.90;;;;;;5087747;28;20048;-85
2021/04/19 07:22:46;;;;;;;17.35;11.30;;;8.00;96.10;;;;;;5081046;28;20060;-83
2021/04/19 07:25:13;;;;;;;16.25;10.93;;;7.90;96.30;;;;;;5094414;28;20060;-84
2021/04/19 07:27:41;;;;;;;16.65;10.05;;;7.90;96.60;;;;;;5095146;28;20143;-84
2021/04/19 07:30:11;;;;;;;15.07;10.13;;;7.80;97.00;;;;;;5096648;28;20090;-83
2021/04/19 07:32:40;;;;;;;16.10;10.80;;;7.80;97.20;;;;;;5098693;28;20079;-84
2021/04/19 07:35:10;;;;;;;16.15;10.30;;;7.90;96.90;;;;;;5102636;28;20059;-84
2021/04/19 07:37:38;;;;;;;16.90;10.05;;;7.80;97.20;;;;;;5084768;28;20055;-85
2021/04/19 07:40:07;;;;;;;16.77;10.23;;;7.90;96.80;;;;;;5086333;28;20055;-85
2021/04/19 07:42:37;;;;;;;18.83;11.10;;;7.90;96.90;;;;;;5102653;28;20052;-83
2021/04/19 07:45:05;;;;;;;17.70;10.65;;;7.90;96.90;;;;;;5101588;28;20133;-85
2021/04/19 07:47:36;;;;;;;16.98;10.35;;;7.80;97.20;;;;;;5095762;28;20048;-84
2021/04/19 07:50:13;;;;;;;17.30;10.98;;;7.90;97.60;;;;;;5094331;28;20051;-84
2021/04/19 07:52:59;;;;;;;19.67;12.00;;;7.90;97.40;;;;;;5093407;28;20044;-84
2021/04/19 07:55:29;;;;;;;20.50;11.98;;;8.00;97.50;;;;;;5076051;28;20051;-83
2021/04/19 07:57:56;;;;;;;16.50;11.15;;;8.10;97.60;;;;;;5095383;28;20064;-84
2021/04/19 08:00:31;;;;;;;15.98;11.05;;;8.00;97.60;;;;;;5097195;28;20072;-84
2021/04/19 08:03:04;;;;;;;18.90;12.13;;;7.90;97.60;;;;;;5080236;28;20596;-85
2021/04/19 08:05:39;;;;;;;18.90;11.70;;;8.00;97.10;;;;;;5099557;28;20401;-84
2021/04/19 08:08:08;;;;;;;20.33;12.13;;;8.10;97.40;;;;;;5079646;28;20044;-84
2021/04/19 08:10:37;;;;;;;18.90;12.55;;;8.10;97.30;;;;;;5097232;28;20399;-83
2021/04/19 08:13:07;;;;;;;16.60;10.85;;;8.00;97.70;;;;;;5096926;28;20072;-84
2021/04/19 08:15:37;;;;;;;19.38;12.25;;;8.00;98.00;;;;;;5096885;28;20086;-84
2021/04/19 08:18:08;;;;;;;16.50;11.65;;;8.00;98.20;;;;;;5096257;28;20048;-84
2021/04/19 08:20:38;;;;;;;18.80;11.63;;;8.00;98.30;;;;;;5097152;28;20082;-84
2021/04/19 08:23:11;;;;;;;18.63;11.07;;;8.10;98.40;;;;;;5096910;28;20079;-84
2021/04/19 08:25:42;;;;;;;16.35;10.77;;;8.00;98.30;;;;;;5097314;28;20048;-83
2021/04/19 08:28:13;;;;;;;18.00;11.52;;;8.00;98.80;;;;;;5079791;28;20179;-83
2021/04/19 08:30:43;;;;;;;17.75;11.23;;;8.10;98.70;;;;;;5105969;28;20079;-84
2021/04/19 08:33:11;;;;;;;16.63;11.13;;;8.10;98.60;;;;;;5106131;28;20080;-84
2021/04/19 08:35:41;;;;;;;16.90;10.98;;;8.20;98.90;;;;;;5106733;28;20153;-83
2021/04/19 08:38:08;;;;;;;17.05;11.27;;;8.20;98.80;;;;;;5107213;28;20147;-84
2021/04/19 08:40:38;;;;;;;19.45;12.15;;;8.30;98.90;;;;;;5103052;28;20112;-84
2021/04/19 08:43:09;;;;;;;18.27;11.93;;;8.40;98.90;;;;;;5082352;28;20040;-83
2021/04/19 08:45:40;;;;;;;17.27;11.40;;;8.40;98.70;;;;;;5085368;28;20107;-84
2021/04/19 08:48:10;;;;;;;18.10;11.68;;;8.60;98.70;;;;;;5106842;28;20358;-83
2021/04/19 08:50:38;;;;;;;18.90;12.48;;;8.60;98.80;;;;;;5099957;28;20527;-82
2021/04/19 08:53:09;;;;;;;16.40;11.65;;;8.70;98.70;;;;;;5096597;28;20131;-84
2021/04/19 08:55:36;;;;;;;17.48;12.52;;;8.60;98.80;;;;;;5095833;28;20080;-84
2021/04/19 08:58:09;;;;;;;16.35;11.63;;;8.80;98.70;;;;;;5096630;28;20083;-83
2021/04/19 09:00:37;;;;;;;18.88;12.57;;;8.80;98.70;;;;;;5096488;28;20548;-83
2021/04/19 09:03:04;;;;;;;19.05;12.05;;;8.90;98.70;;;;;;5096600;28;20143;-84
2021/04/19 09:05:31;;;;;;;19.77;13.15;;;8.90;98.70;;;;;;5096278;28;20417;-85
2021/04/19 09:08:07;;;;;;;20.25;14.05;;;9.00;98.60;;;;;;5096232;28;20450;-84
2021/04/19 09:10:54;;;;;;;22.70;14.77;;;9.10;98.30;;;;;;5095791;28;20202;-85
2021/04/19 09:13:30;;;;;;;21.70;14.27;;;9.10;98.10;;;;;;5096749;28;20121;-84
2021/04/19 09:16:17;;;;;;;20.20;13.02;;;9.00;98.40;;;;;;5100020;28;20048;-83
2021/04/19 09:18:46;;;;;;;16.92;11.23;;;9.10;98.70;;;;;;5082427;28;20053;-81
2021/04/19 09:21:38;;;;;;;19.33;12.38;;;9.10;99.00;;;;;;5096024;28;20139;-83
2021/04/19 09:24:08;;;;;;;21.45;13.00;;;9.10;99.10;;;;;;5092097;28;20451;-83
2021/04/19 09:26:51;;;;;;;19.83;12.18;;;9.30;99.20;;;;;;5095915;28;20577;-83
2021/04/19 09:29:48;;;;;;;20.77;12.70;;;9.30;99.20;;;;;;5096028;28;20106;-83
2021/04/19 09:32:26;;;;;;;20.50;13.70;;;9.40;99.20;;;;;;5095904;28;20075;-83
2021/04/19 09:34:57;;;;;;;19.15;12.93;;;9.50;98.70;;;;;;5095985;28;20069;-83
2021/04/19 09:37:54;;;;;;;19.23;13.13;;;9.50;98.70;;;;;;5095729;28;20136;-84
2021/04/19 09:40:24;;;;;;;23.75;14.77;;;9.40;98.80;;;;;;5095267;28;20059;-84
2021/04/19 09:43:06;;;;;;;22.33;14.27;;;9.40;98.90;;;;;;5078782;28;20126;-87
2021/04/19 09:45:57;;;;;;;22.65;13.55;;;9.70;98.90;;;;;;5097067;28;20398;-87
2021/04/19 09:48:48;;;;;;;20.73;13.85;;;9.80;98.80;;;;;;5097352;28;20082;-87
2021/04/19 09:51:19;;;;;;;22.75;15.00;;;9.90;98.70;;;;;;5098565;28;20124;-86
2021/04/19 09:53:52;;;;;;;19.95;13.25;;;9.90;98.60;;;;;;5096301;28;20078;-82
2021/04/19 09:56:27;;;;;;;22.63;15.07;;;9.90;98.70;;;;;;5095766;28;20519;-82
2021/04/19 09:58:54;;;;;;;21.65;13.93;;;10.00;98.60;;;;;;5096339;28;20128;-82
2021/04/19 10:01:23;;;;;;;20.88;14.07;;;10.00;98.20;;;;;;5095549;28;20055;-83
2021/04/19 10:03:54;;;;;;;25.63;15.32;;;10.00;98.10;;;;;;5096044;28;20466;-84
2021/04/19 10:06:24;;;;;;;21.55;14.95;;;10.00;98.10;;;;;;5094974;28;20405;-83
2021/04/19 10:08:52;;;;;;;21.75;14.75;;;10.00;98.30;;;;;;5095172;28;20131;-85
2021/04/19 10:11:26;;;;;;;21.30;14.18;;;9.90;98.40;;;;;;5094685;28;20466;-82
2021/04/19 10:13:53;;;;;;;21.75;14.88;;;9.90;98.80;;;;;;5099839;28;20090;-83
2021/04/19 10:16:20;;;;;;;23.08;15.52;;;9.90;98.30;;;;;;5104594;28;20072;-85
2021/04/19 10:18:52;;;;;;;21.77;14.77;;;9.90;98.60;;;;;;5109128;28;20048;-84
2021/04/19 10:21:30;;;;;;;20.05;14.15;;;9.90;98.70;;;;;;5106535;28;20104;-84
2021/04/19 10:23:58;;;;;;;20.60;14.48;;;9.80;99.10;;;;;;5105904;28;20052;-82
2021/04/19 10:26:35;;;;;;;22.17;15.25;;;9.80;99.40;;;;;;5102737;28;20469;-83
2021/04/19 10:29:15;;;;;;;21.10;14.52;;;9.80;99.60;;;;;;5100811;28;20059;-81
2021/04/19 10:31:51;;;;;;;26.90;15.98;;;9.80;99.50;;;;;;5074493;28;20056;-82
2021/04/19 10:34:19;;;;;;;23.42;15.70;;;10.00;99.10;;;;;;5084502;28;20048;-83
2021/04/19 10:36:49;;;;;;;22.40;15.13;;;10.00;98.10;;;;;;5098631;28;20129;-83
2021/04/19 10:39:20;;;;;;;23.83;15.98;;;10.00;97.90;;;;;;5083144;28;20048;-83
2021/04/19 10:41:50;;;;;;;21.63;14.45;;;10.00;98.10;;;;;;5081410;28;20131;-81
2021/04/19 10:44:18;;;;;;;25.45;16.23;;;9.90;98.70;;;;;;5097659;28;20075;-83
2021/04/19 10:46:45;;;;;;;26.10;17.52;;;10.20;97.40;;;;;;5099842;28;20047;-82
2021/04/19 10:49:24;;;;;;;25.40;17.23;;;10.20;97.40;;;;;;5078173;28;20174;-84
2021/04/19 10:51:53;;;;;;;27.33;17.17;;;10.30;97.30;;;;;;5105935;28;20044;-83
2021/04/19 10:54:26;;;;;;;28.33;17.17;;;10.20;97.30;;;;;;5105179;28;20048;-84
2021/04/19 10:56:54;;;;;;;28.70;17.63;;;10.10;97.50;;;;;;5105054;28;20040;-82
2021/04/19 10:59:23;;;;;;;30.35;18.00;;;10.20;97.80;;;;;;5105033;28;20071;-85
2021/04/19 11:01:59;;;;;;;27.83;17.73;;;10.10;96.60;;;;;;5083149;28;20393;-84
2021/04/19 11:04:26;;;;;;;28.42;17.17;;;10.10;96.50;;;;;;5099820;28;20149;-80
2021/04/19 11:06:53;;;;;;;30.58;17.73;;;10.00;97.70;;;;;;5102813;28;20105;-81
2021/04/19 11:09:26;;;;;;;29.10;17.40;;;10.10;97.30;;;;;;5083521;28;20478;-81
2021/04/19 11:11:56;;;;;;;26.33;16.13;;;10.10;96.90;;;;;;5100091;28;20044;-80
2021/04/19 11:14:25;;;;;;;29.95;16.30;;;10.00;97.70;;;;;;5104534;28;20048;-79
2021/04/19 11:17:00;;;;;;;29.48;18.23;;;10.10;96.80;;;;;;5106145;28;20048;-86
2021/04/19 11:19:41;;;;;;;27.08;17.55;;;10.20;97.10;;;;;;5104063;28;20480;-82
2021/04/19 11:22:27;;;;;;;26.15;16.05;;;10.20;97.20;;;;;;5096083;28;20052;-80
2021/04/19 11:24:55;;;;;;;30.17;17.27;;;10.20;97.10;;;;;;5092676;28;20044;-79
2021/04/19 11:27:27;;;;;;;25.92;16.35;;;10.30;97.30;;;;;;5092734;28;20553;-80
2021/04/19 11:29:54;;;;;;;27.10;16.90;;;10.30;96.20;;;;;;5093496;28;20101;-79
2021/04/19 11:32:32;;;;;;;31.13;18.10;;;10.20;96.80;;;;;;5094482;28;20130;-78
2021/04/19 11:35:00;;;;;;;29.20;17.67;;;10.40;96.50;;;;;;5095703;28;20047;-78
2021/04/19 11:37:31;;;;;;;25.70;16.67;;;10.40;96.70;;;;;;5085754;28;20152;-80
2021/04/19 11:39:58;;;;;;;26.92;16.67;;;10.40;96.50;;;;;;5097397;28;20101;-79
2021/04/19 11:42:32;;;;;;;26.85;16.92;;;10.50;96.00;;;;;;5082473;28;20052;-80
2021/04/19 11:44:59;;;;;;;27.85;17.20;;;10.50;95.90;;;;;;5077248;28;20127;-79
2021/04/19 11:47:26;;;;;;;26.75;17.42;;;10.60;95.70;;;;;;5077540;28;20091;-78
2021/04/19 11:49:53;;;;;;;25.27;16.98;;;10.40;95.60;;;;;;5058163;28;20051;-79
2021/04/19 11:52:21;;;;;;;29.13;17.75;;;10.50;95.70;;;;;;5076486;28;20111;-79
2021/04/19 11:54:48;;;;;;;27.85;17.70;;;10.50;95.80;;;;;;5093372;28;20131;-80
2021/04/19 11:57:14;;;;;;;29.15;17.85;;;10.50;96.60;;;;;;5096556;28;20150;-79
2021/04/19 11:59:42;;;;;;;26.35;18.00;;;10.70;97.00;;;;;;5097799;28;20090;-82
2021/04/19 12:02:09;;;;;;;27.55;16.92;;;10.90;95.90;;;;;;5098744;28;20067;-85
2021/04/19 12:04:36;;;;;;;26.83;16.95;;;10.80;96.80;;;;;;5098809;28;20098;-86
2021/04/19 12:07:04;;;;;;;26.50;17.67;;;11.00;95.90;;;;;;5063900;28;20079;-84
2021/04/19 12:09:30;;;;;;;26.17;17.48;;;11.00;95.30;;;;;;5098284;28;20051;-85
2021/04/19 12:11:57;;;;;;;28.92;17.35;;;11.10;95.00;;;;;;5092214;28;20489;-85
2021/04/19 12:14:26;;;;;;;30.85;17.33;;;11.10;94.60;;;;;;5078275;28;20115;-85
2021/04/19 12:16:55;;;;;;;26.67;16.60;;;11.10;94.60;;;;;;5077145;28;20062;-85
2021/04/19 12:19:23;;;;;;;25.30;16.35;;;11.00;94.80;;;;;;5060053;28;20084;-85
2021/04/19 12:21:50;;;;;;;26.92;16.58;;;10.90;94.80;;;;;;5059765;28;20097;-84
2021/04/19 12:24:17;;;;;;;27.35;16.77;;;10.90;94.90;;;;;;5077176;28;20131;-84
2021/04/19 12:26:43;;;;;;;25.55;15.13;;;11.00;94.70;;;;;;5078535;28;20071;-83
2021/04/19 12:29:10;;;;;;;24.50;16.80;;;11.00;95.20;;;;;;5062065;28;20458;-82
2021/04/19 12:31:37;;;;;;;25.77;15.20;;;11.00;94.80;;;;;;5060492;28;20466;-82
2021/04/19 12:34:05;;;;;;;23.05;14.73;;;10.90;94.40;;;;;;5070006;28;20071;-84
2021/04/19 12:36:33;;;;;;;26.52;15.52;;;11.00;94.70;;;;;;5059614;28;20056;-84
2021/04/19 12:39:01;;;;;;;25.23;15.63;;;11.00;94.70;;;;;;5076953;28;20044;-84
2021/04/19 12:41:28;;;;;;;25.02;14.93;;;10.90;93.80;;;;;;5059941;28;20044;-84
2021/04/19 12:43:55;;;;;;;40.00;24.38;;;10.90;94.20;;;;;;5069844;28;20149;-84
2021/04/19 12:46:25;;;;;;;23.30;15.52;;;11.00;94.30;;;;;;5079343;28;20052;-84
2021/04/19 12:48:52;;;;;;;23.33;14.45;;;11.00;94.90;;;;;;5076642;28;20056;-83
2021/04/19 12:51:19;;;;;;;21.10;13.85;;;11.00;95.00;;;;;;5076799;28;20068;-83
2021/04/19 12:53:46;;;;;;;20.38;13.63;;;11.10;94.20;;;;;;5059109;28;20057;-83
2021/04/19 12:56:13;;;;;;;17.80;12.32;;;11.20;94.20;;;;;;5076569;28;20080;-84